Time;durP1;ratioP1;P1;durP2;ratioP2;P2;SDS_P1;SDS_P2;PMS_P1;PMS_P2;Temp;Humidity;BMP_temperature;BMP_pressure;BME280_temperature;BME280_humidity;BME280_pressure;Samples;Min_cycle;Max_cycle;Signal;HPM_P1;HPM_P2
2023/06/13 00:00:10;;;;;;;5.72;4.68;;;;;;;26.01;34.38;101761.25;4982359;28;20150;-67
2023/06/13 00:02:39;;;;;;;8.05;4.88;;;;;;;26.01;34.47;101763.94;4982394;28;20074;-67
2023/06/13 00:05:18;;;;;;;8.77;5.15;;;;;;;26.02;34.94;101763.72;4990469;28;20034;-67
2023/06/13 00:07:44;;;;;;;7.40;4.30;;;;;;;26.00;34.92;101764.97;4988789;28;20066;-67
2023/06/13 00:10:12;;;;;;;6.07;4.63;;;;;;;25.99;34.85;101761.47;4971151;28;20588;-66
2023/06/13 00:12:39;;;;;;;6.28;4.43;;;;;;;25.99;34.67;101763.31;4989898;28;20862;-68
2023/06/13 00:15:06;;;;;;;6.25;4.13;;;;;;;25.98;34.65;101764.34;4982223;28;20045;-71
2023/06/13 00:17:32;;;;;;;6.88;4.47;;;;;;;25.99;34.53;101760.66;4996398;28;20034;-72
2023/06/13 00:20:04;;;;;;;7.55;4.78;;;;;;;25.98;34.81;101762.50;4991372;28;20129;-73
2023/06/13 00:22:30;;;;;;;5.82;4.32;;;;;;;25.96;34.93;101766.38;4996313;28;20069;-73
2023/06/13 00:24:55;;;;;;;6.82;4.63;;;;;;;25.97;34.80;101766.19;4994522;28;20042;-72
2023/06/13 00:27:21;;;;;;;7.15;4.65;;;;;;;25.95;34.92;101762.88;4992323;28;20054;-72
2023/06/13 00:29:46;;;;;;;7.28;4.55;;;;;;;25.93;34.63;101767.59;4991087;28;20493;-72
2023/06/13 00:32:12;;;;;;;7.22;4.60;;;;;;;25.96;34.92;101767.22;4981592;28;20043;-69
2023/06/13 00:34:38;;;;;;;7.75;4.75;;;;;;;25.94;34.70;101758.56;4973306;28;20058;-68
2023/06/13 00:37:05;;;;;;;6.68;4.70;;;;;;;25.95;34.79;101762.06;4988605;28;20077;-68
2023/06/13 00:39:31;;;;;;;5.63;4.47;;;;;;;25.94;34.67;101761.25;4992085;28;20041;-68
2023/06/13 00:42:01;;;;;;;6.00;4.20;;;;;;;25.93;34.65;101762.28;4969931;28;21366;-68
2023/06/13 00:44:26;;;;;;;6.15;4.20;;;;;;;25.93;34.56;101758.78;4956618;28;20269;-68
2023/06/13 00:46:55;;;;;;;5.80;4.13;;;;;;;25.93;34.93;101761.44;4968167;28;20038;-69
2023/06/13 00:49:21;;;;;;;5.68;3.92;;;;;;;25.92;34.81;101743.78;4981577;28;20105;-74
2023/06/13 00:51:47;;;;;;;7.32;4.80;;;;;;;25.93;34.53;101753.44;4973960;28;20050;-75
2023/06/13 00:54:13;;;;;;;5.22;3.97;;;;;;;25.92;34.53;101754.47;4975050;28;20034;-74
2023/06/13 00:56:41;;;;;;;7.30;4.45;;;;;;;25.90;35.09;101750.16;4990798;28;20045;-75
2023/06/13 00:59:08;;;;;;;6.75;4.20;;;;;;;25.89;34.94;101753.84;4985721;28;20050;-67
2023/06/13 01:01:34;;;;;;;7.28;4.55;;;;;;;25.89;34.73;101753.84;4973083;28;20041;-66
2023/06/13 01:03:59;;;;;;;7.18;4.70;;;;;;;25.89;34.66;101756.50;4992568;28;20428;-66
2023/06/13 01:06:30;;;;;;;5.85;4.47;;;;;;;25.89;34.71;101751.16;4970057;28;20038;-67
2023/06/13 01:09:02;;;;;;;6.03;4.18;;;;;;;25.88;34.95;101759.38;4987103;28;20083;-67
2023/06/13 01:11:50;;;;;;;8.13;4.38;;;;;;;25.87;34.92;101758.56;4983736;28;20054;-68
2023/06/13 01:14:24;;;;;;;5.88;4.03;;;;;;;25.85;34.87;101752.59;4975495;28;20057;-68
2023/06/13 01:16:56;;;;;;;6.28;4.63;;;;;;;25.82;35.13;101747.63;4978508;28;20042;-69
2023/06/13 01:19:37;;;;;;;6.35;4.47;;;;;;;25.84;34.75;101752.75;4987123;28;20049;-68
2023/06/13 01:22:08;;;;;;;7.50;4.35;;;;;;;25.86;34.61;101753.41;4987304;28;20693;-68
2023/06/13 01:24:49;;;;;;;8.73;4.32;;;;;;;25.86;35.00;101750.75;4984659;28;20042;-68
2023/06/13 01:27:16;;;;;;;6.88;4.60;;;;;;;25.84;35.09;101744.75;4973081;28;20034;-68
2023/06/13 01:29:43;;;;;;;8.23;4.72;;;;;;;25.78;35.04;101745.56;4988813;28;20572;-68
2023/06/13 01:32:11;;;;;;;6.53;4.90;;;;;;;25.82;34.78;101752.97;4978376;28;20027;-68
2023/06/13 01:34:40;;;;;;;7.15;4.07;;;;;;;25.79;34.94;101745.34;4962298;28;20049;-68
2023/06/13 01:37:07;;;;;;;5.55;4.22;;;;;;;25.79;34.63;101749.88;4992052;28;20057;-68
2023/06/13 01:39:34;;;;;;;5.55;4.15;;;;;;;25.75;34.67;101744.13;4971205;28;20508;-68
2023/06/13 01:42:00;;;;;;;7.20;4.60;;;;;;;25.80;34.78;101755.00;4967220;28;20220;-68
2023/06/13 01:44:28;;;;;;;6.70;4.47;;;;;;;25.79;34.87;101744.53;4989323;28;20042;-68
2023/06/13 01:47:15;;;;;;;8.73;4.60;;;;;;;25.79;34.79;101748.03;4987433;28;20046;-68
2023/06/13 01:50:15;;;;;;;6.30;4.67;;;;;;;25.79;34.98;101741.88;4977026;28;20058;-71
2023/06/13 01:52:50;;;;;;;6.70;4.38;;;;;;;25.77;35.00;101746.59;4981300;28;20487;-72
2023/06/13 01:55:26;;;;;;;5.80;3.80;;;;;;;25.76;34.71;101745.75;4988986;28;20034;-72
2023/06/13 01:58:02;;;;;;;7.47;4.43;;;;;;;25.75;34.75;101740.63;4971771;28;20030;-71
2023/06/13 02:00:28;;;;;;;9.05;5.03;;;;;;;25.73;34.95;101743.50;4965285;28;20060;-72
2023/06/13 02:02:55;;;;;;;5.80;4.30;;;;;;;25.73;34.81;101740.81;4990486;28;20672;-72
2023/06/13 02:05:21;;;;;;;5.82;4.20;;;;;;;25.72;34.86;101739.19;4990182;28;20034;-72
2023/06/13 02:07:47;;;;;;;6.43;4.55;;;;;;;25.72;34.82;101735.69;4976629;28;20042;-71
2023/06/13 02:10:13;;;;;;;6.95;4.80;;;;;;;25.71;34.81;101737.53;4967143;28;20042;-72
2023/06/13 02:12:39;;;;;;;5.40;4.18;;;;;;;25.69;34.85;101728.91;4968062;28;20054;-71
2023/06/13 02:15:08;;;;;;;6.85;4.70;;;;;;;25.71;34.94;101739.38;4986645;28;20072;-71
2023/06/13 02:17:34;;;;;;;5.57;4.17;;;;;;;25.70;34.66;101735.88;4954238;28;20105;-71
2023/06/13 02:20:03;;;;;;;6.10;5.03;;;;;;;25.68;34.68;101735.25;4965678;28;20515;-71
2023/06/13 02:22:28;;;;;;;6.93;4.55;;;;;;;25.68;34.98;101742.44;4971498;28;20033;-71
2023/06/13 02:24:55;;;;;;;7.65;4.90;;;;;;;25.67;34.74;101738.91;4954362;28;20835;-72
2023/06/13 02:27:20;;;;;;;5.88;4.88;;;;;;;25.68;34.79;101734.44;4981404;28;20624;-72
2023/06/13 02:29:46;;;;;;;6.32;4.65;;;;;;;25.67;34.92;101735.41;4969251;28;20041;-72
2023/06/13 02:32:11;;;;;;;6.95;4.45;;;;;;;25.67;34.69;101735.41;4984856;28;20034;-72
2023/06/13 02:34:37;;;;;;;6.57;4.68;;;;;;;25.66;35.08;101736.41;4961912;28;20101;-72
2023/06/13 02:37:05;;;;;;;8.25;5.00;;;;;;;25.64;35.07;101733.94;4992103;28;20170;-72
2023/06/13 02:39:31;;;;;;;6.45;4.80;;;;;;;25.64;34.98;101739.28;4974856;28;20700;-72
2023/06/13 02:41:57;;;;;;;7.32;4.70;;;;;;;25.63;34.84;101737.66;4975539;28;20042;-71
2023/06/13 02:44:22;;;;;;;7.65;4.60;;;;;;;25.65;34.78;101742.78;4988648;28;20290;-72
2023/06/13 02:46:48;;;;;;;6.18;4.57;;;;;;;25.65;35.14;101740.13;4971105;28;20045;-72
2023/06/13 02:49:13;;;;;;;6.00;4.22;;;;;;;25.63;35.25;101742.16;4975490;28;20034;-71
2023/06/13 02:51:40;;;;;;;8.10;4.60;;;;;;;25.61;34.77;101740.50;4987149;28;20034;-71
2023/06/13 02:54:07;;;;;;;9.50;5.28;;;;;;;25.60;34.86;101744.19;4990274;28;20515;-72
2023/06/13 02:56:33;;;;;;;7.00;4.85;;;;;;;25.60;34.65;101741.53;4966928;28;20505;-71
2023/06/13 02:58:59;;;;;;;7.72;4.93;;;;;;;25.59;35.09;101744.41;4960873;28;20536;-72
2023/06/13 03:01:26;;;;;;;9.18;4.65;;;;;;;25.60;34.82;101743.38;4987335;28;20042;-72
2023/06/13 03:03:53;;;;;;;10.35;4.82;;;;;;;25.59;35.14;101747.06;4966134;28;20038;-72
2023/06/13 03:06:18;;;;;;;7.25;5.00;;;;;;;25.58;35.23;101748.09;4964505;28;20049;-72
2023/06/13 03:08:45;;;;;;;7.13;4.63;;;;;;;25.56;35.08;101750.94;4972013;28;20517;-73
2023/06/13 03:11:12;;;;;;;7.32;5.10;;;;;;;25.53;34.96;101748.69;4984696;28;20121;-72
2023/06/13 03:13:40;;;;;;;6.20;4.80;;;;;;;25.56;34.77;101750.94;4970939;28;20133;-73
2023/06/13 03:16:06;;;;;;;8.45;4.90;;;;;;;25.57;34.90;101754.44;4993932;28;20042;-73
2023/06/13 03:18:34;;;;;;;7.63;5.07;;;;;;;25.53;35.11;101748.69;4986059;28;20125;-73
2023/06/13 03:21:01;;;;;;;6.53;4.68;;;;;;;25.52;35.17;101755.03;4971543;28;20038;-72
2023/06/13 03:23:26;;;;;;;7.03;5.07;;;;;;;25.52;35.20;101754.22;4976613;28;20057;-72
2023/06/13 03:25:53;;;;;;;6.13;4.38;;;;;;;25.53;34.97;101755.84;4968978;28;20035;-72
2023/06/13 03:28:19;;;;;;;9.88;5.35;;;;;;;25.50;34.83;101753.59;4992403;28;20046;-73
2023/06/13 03:30:47;;;;;;;6.60;4.82;;;;;;;25.51;35.24;101755.22;4957606;28;20805;-73
2023/06/13 03:33:13;;;;;;;6.88;4.82;;;;;;;25.51;34.90;101753.38;4971409;28;20038;-72
2023/06/13 03:35:42;;;;;;;7.82;4.70;;;;;;;25.50;34.69;101751.75;4972677;28;20034;-72
2023/06/13 03:38:08;;;;;;;6.25;4.70;;;;;;;25.49;35.09;101752.72;4974386;28;20150;-73
2023/06/13 03:40:33;;;;;;;7.93;4.90;;;;;;;25.49;34.88;101751.91;4990092;28;20500;-73
2023/06/13 03:42:59;;;;;;;6.55;5.13;;;;;;;25.40;34.70;101731.75;4970068;28;20042;-73
2023/06/13 03:45:25;;;;;;;6.75;5.22;;;;;;;25.49;35.18;101752.72;4961883;28;20041;-67
2023/06/13 03:47:51;;;;;;;6.95;4.82;;;;;;;25.48;34.98;101752.94;4981383;28;20129;-72
2023/06/13 03:50:17;;;;;;;7.22;4.55;;;;;;;25.44;34.83;101749.84;4980985;28;20038;-73
2023/06/13 03:52:43;;;;;;;7.80;4.47;;;;;;;25.48;34.99;101755.59;4969500;28;20493;-73
2023/06/13 03:55:10;;;;;;;7.03;5.32;;;;;;;25.49;34.66;101754.56;4969860;28;20035;-72
2023/06/13 03:57:35;;;;;;;6.68;4.88;;;;;;;25.46;35.14;101747.78;4976234;28;20045;-73
2023/06/13 04:00:01;;;;;;;6.80;5.00;;;;;;;25.46;34.91;101749.63;4971809;28;20706;-73
2023/06/13 04:02:27;;;;;;;6.25;4.95;;;;;;;25.42;34.84;101745.72;4956676;28;20088;-67
2023/06/13 04:04:52;;;;;;;8.32;5.53;;;;;;;25.45;34.91;101746.16;4984896;28;20049;-67
2023/06/13 04:07:21;;;;;;;6.25;4.72;;;;;;;25.44;35.04;101749.84;4961381;28;20037;-67
2023/06/13 04:09:47;;;;;;;8.20;5.43;;;;;;;25.44;34.74;101749.84;4986592;28;20038;-67
2023/06/13 04:12:15;;;;;;;7.57;4.80;;;;;;;25.44;34.99;101760.50;4973696;28;20054;-67
2023/06/13 04:14:41;;;;;;;6.22;4.70;;;;;;;25.42;34.56;101761.72;4987585;28;20038;-67
2023/06/13 04:17:09;;;;;;;6.75;4.78;;;;;;;25.42;34.80;101756.38;4971652;28;20026;-67
2023/06/13 04:19:35;;;;;;;6.32;5.10;;;;;;;25.43;34.51;101766.84;4988057;28;20047;-68
2023/06/13 04:22:01;;;;;;;7.65;5.10;;;;;;;25.39;34.77;101760.28;4991530;28;20038;-67
2023/06/13 04:24:27;;;;;;;5.93;4.85;;;;;;;25.41;34.66;101770.75;4964543;28;20042;-68
2023/06/13 04:26:53;;;;;;;6.22;4.85;;;;;;;25.37;34.99;101761.47;4972014;28;20046;-67
2023/06/13 04:29:19;;;;;;;6.00;5.10;;;;;;;25.42;34.81;101769.72;4992491;28;20097;-67
2023/06/13 04:31:46;;;;;;;6.00;4.20;;;;;;;25.37;34.47;101767.63;4977850;28;20038;-67
2023/06/13 04:34:13;;;;;;;7.25;5.03;;;;;;;25.37;34.83;101767.63;4998393;28;20038;-68
2023/06/13 04:36:41;;;;;;;7.70;5.00;;;;;;;25.40;34.91;101769.09;4987573;28;20507;-67
2023/06/13 04:39:07;;;;;;;8.75;4.88;;;;;;;25.39;34.54;101762.13;4992538;28;20112;-67
2023/06/13 04:41:34;;;;;;;6.90;4.88;;;;;;;25.40;34.58;101767.25;4990028;28;20030;-67
2023/06/13 04:44:05;;;;;;;7.53;5.15;;;;;;;25.36;34.73;101774.00;4994266;28;20821;-68
2023/06/13 04:46:32;;;;;;;6.30;4.50;;;;;;;25.37;34.55;101766.81;4974875;28;21759;-75
2023/06/13 04:48:58;;;;;;;7.75;5.22;;;;;;;25.37;34.65;101772.97;4990157;28;20054;-75
2023/06/13 04:51:25;;;;;;;6.50;5.13;;;;;;;25.34;34.85;101762.69;4989750;28;20507;-75
2023/06/13 04:53:52;;;;;;;9.68;5.07;;;;;;;25.37;34.59;101772.16;4994879;28;20176;-75
2023/06/13 04:56:18;;;;;;;9.25;5.63;;;;;;;25.39;34.47;101772.78;4978071;28;20105;-74
2023/06/13 04:58:43;;;;;;;7.53;5.38;;;;;;;25.37;34.55;101772.97;4994221;28;20049;-74
2023/06/13 05:01:11;;;;;;;8.63;5.88;;;;;;;25.36;34.55;101767.84;4990628;28;20041;-75
2023/06/13 05:03:38;;;;;;;9.35;5.28;;;;;;;25.34;34.41;101764.53;4974931;28;20034;-74
2023/06/13 05:06:03;;;;;;;6.40;4.95;;;;;;;25.30;34.46;101764.09;4997219;28;20045;-75
2023/06/13 05:08:30;;;;;;;10.10;5.65;;;;;;;25.37;34.42;101772.16;4997659;28;20038;-75
2023/06/13 05:10:57;;;;;;;5.90;4.70;;;;;;;25.35;34.33;101774.19;4996718;28;20128;-75
2023/06/13 05:13:23;;;;;;;7.25;4.95;;;;;;;25.35;34.69;101769.69;4981677;28;20583;-75
2023/06/13 05:15:48;;;;;;;7.25;5.18;;;;;;;25.36;34.43;101766.00;4992806;28;20046;-74
2023/06/13 05:18:14;;;;;;;6.55;4.88;;;;;;;25.33;34.52;101762.91;4979008;28;20062;-75
2023/06/13 05:20:43;;;;;;;8.18;5.00;;;;;;;25.34;34.54;101770.69;4986308;28;20102;-74
2023/06/13 05:23:10;;;;;;;6.32;4.88;;;;;;;25.33;34.63;101774.38;4992281;28;20053;-74
2023/06/13 05:25:36;;;;;;;6.22;4.80;;;;;;;25.33;34.37;101766.38;4987251;28;20046;-74
2023/06/13 05:28:02;;;;;;;8.38;5.15;;;;;;;25.24;34.33;101756.88;4990456;28;20046;-75
2023/06/13 05:30:27;;;;;;;6.38;5.40;;;;;;;25.34;34.71;101769.88;4985895;28;20152;-74
2023/06/13 05:32:53;;;;;;;7.07;5.10;;;;;;;25.37;34.46;101774.81;4978023;28;20120;-74
2023/06/13 05:35:19;;;;;;;7.28;5.25;;;;;;;25.36;34.64;101770.50;4963348;28;20042;-74
2023/06/13 05:37:46;;;;;;;7.20;4.97;;;;;;;25.34;34.82;101765.38;4991740;28;20046;-74
2023/06/13 05:40:12;;;;;;;8.70;5.30;;;;;;;25.32;34.74;101775.41;4990374;28;20038;-74
2023/06/13 05:42:38;;;;;;;7.20;5.43;;;;;;;25.33;34.42;101777.06;4974429;28;20226;-74
2023/06/13 05:45:06;;;;;;;10.73;5.07;;;;;;;25.33;34.64;101773.56;4988821;28;20049;-74
2023/06/13 05:47:31;;;;;;;6.68;4.93;;;;;;;25.33;34.57;101777.06;4982948;28;20034;-76
2023/06/13 05:49:57;;;;;;;6.38;4.47;;;;;;;25.33;34.69;101776.22;4977810;28;20043;-72
2023/06/13 05:52:22;;;;;;;7.45;4.85;;;;;;;25.36;34.43;101778.50;4990165;28;20050;-72
2023/06/13 05:54:48;;;;;;;6.32;4.75;;;;;;;25.35;34.40;101784.84;4987904;28;20041;-72
2023/06/13 05:57:15;;;;;;;7.25;4.90;;;;;;;25.36;34.63;101779.31;4976021;28;20026;-72
2023/06/13 05:59:40;;;;;;;6.47;4.60;;;;;;;25.35;34.41;101774.19;4990780;28;20038;-72
2023/06/13 06:02:07;;;;;;;9.73;4.80;;;;;;;25.35;34.56;101787.53;4982560;28;20054;-72
2023/06/13 06:04:33;;;;;;;6.13;4.90;;;;;;;25.36;34.29;101783.84;4995500;28;20045;-72
2023/06/13 06:06:58;;;;;;;8.45;5.25;;;;;;;25.36;34.12;101783.84;4985899;28;22700;-72
2023/06/13 06:09:23;;;;;;;6.13;4.70;;;;;;;25.38;34.17;101779.94;4987046;28;20448;-72
2023/06/13 06:11:51;;;;;;;9.38;5.30;;;;;;;25.37;34.16;101777.47;4987860;28;20073;-73
2023/06/13 06:14:16;;;;;;;10.25;4.72;;;;;;;25.38;33.96;101784.47;4980040;28;20046;-74
2023/06/13 06:16:42;;;;;;;7.32;4.55;;;;;;;25.38;34.09;101784.47;4993850;28;20057;-74
2023/06/13 06:19:08;;;;;;;7.25;4.28;;;;;;;25.36;34.02;101787.31;4981114;28;20039;-68
2023/06/13 06:21:33;;;;;;;7.60;4.45;;;;;;;25.37;34.14;101791.63;4969710;28;20045;-69
2023/06/13 06:23:59;;;;;;;6.18;4.30;;;;;;;25.37;34.21;101780.97;4987042;28;20456;-68
2023/06/13 06:26:26;;;;;;;5.95;3.72;;;;;;;25.37;33.91;101778.31;4983250;28;20046;-68
2023/06/13 06:28:52;;;;;;;5.55;4.15;;;;;;;25.36;34.05;101782.00;4991311;28;20550;-68
2023/06/13 06:31:18;;;;;;;6.90;4.25;;;;;;;25.38;34.04;101785.28;4987595;28;20045;-67
2023/06/13 06:33:44;;;;;;;5.93;4.22;;;;;;;25.40;34.29;101787.75;4976674;28;20050;-67
2023/06/13 06:36:10;;;;;;;6.13;4.43;;;;;;;25.42;33.99;101796.38;4973202;28;20051;-67
2023/06/13 06:38:35;;;;;;;8.00;5.07;;;;;;;25.42;33.90;101791.88;4988774;28;20081;-67
2023/06/13 06:41:01;;;;;;;6.43;4.28;;;;;;;25.40;33.79;101788.59;4982251;28;20046;-66
2023/06/13 06:43:26;;;;;;;6.20;4.65;;;;;;;25.45;33.63;101796.00;4977981;28;20042;-66
2023/06/13 06:45:54;;;;;;;7.40;4.50;;;;;;;25.46;33.72;101786.97;4965678;28;20042;-67
2023/06/13 06:48:20;;;;;;;6.28;4.75;;;;;;;25.49;33.48;101795.41;4974818;28;20439;-66
2023/06/13 06:50:45;;;;;;;6.60;4.53;;;;;;;25.50;33.33;101798.91;4982021;28;20042;-67
2023/06/13 06:53:11;;;;;;;7.65;4.72;;;;;;;25.53;33.27;101796.69;4978665;28;20042;-66
2023/06/13 06:55:36;;;;;;;7.45;4.50;;;;;;;25.58;32.88;101798.75;4971209;28;20045;-71
2023/06/13 06:58:02;;;;;;;5.70;4.35;;;;;;;25.61;33.37;101787.69;4988020;28;20449;-71
2023/06/13 07:00:28;;;;;;;7.53;4.25;;;;;;;25.64;33.10;101799.81;4989546;28;20058;-71
2023/06/13 07:02:54;;;;;;;7.68;3.80;;;;;;;25.66;33.59;101795.09;4982573;28;20054;-72
2023/06/13 07:05:20;;;;;;;6.35;4.10;;;;;;;25.69;33.08;101789.44;4990572;28;20046;-71
2023/06/13 07:07:46;;;;;;;6.75;4.10;;;;;;;25.73;33.55;101790.69;4990478;28;20046;-71
2023/06/13 07:10:11;;;;;;;5.70;3.92;;;;;;;25.77;33.44;101789.28;4991632;28;20064;-71
2023/06/13 07:12:40;;;;;;;5.65;4.13;;;;;;;25.79;33.40;101796.06;4961383;28;20054;-67
2023/06/13 07:15:06;;;;;;;6.75;4.18;;;;;;;25.84;33.35;101792.78;4974331;28;20056;-67
2023/06/13 07:17:32;;;;;;;8.07;3.92;;;;;;;25.85;33.62;101789.09;4982002;28;20053;-67
2023/06/13 07:19:58;;;;;;;8.30;4.20;;;;;;;25.86;33.40;101794.25;4983656;28;20043;-67
2023/06/13 07:22:23;;;;;;;6.88;4.00;;;;;;;25.89;33.32;101788.53;4985130;28;20588;-67
2023/06/13 07:24:49;;;;;;;7.35;4.50;;;;;;;25.92;33.07;101800.66;4985982;28;20039;-67
2023/06/13 07:27:20;;;;;;;6.55;4.25;;;;;;;25.94;33.17;101792.44;4982446;28;20642;-67
2023/06/13 07:29:46;;;;;;;8.05;4.50;;;;;;;25.96;32.91;101785.06;4984759;28;20043;-67
2023/06/13 07:32:12;;;;;;;7.40;3.92;;;;;;;25.99;32.83;101790.00;4975832;28;20053;-67
2023/06/13 07:34:38;;;;;;;7.80;4.13;;;;;;;26.00;32.65;101789.81;4987378;28;20042;-67
2023/06/13 07:37:03;;;;;;;6.75;4.15;;;;;;;26.01;32.55;101793.28;4982188;28;20370;-66
2023/06/13 07:39:29;;;;;;;7.07;4.03;;;;;;;26.02;32.61;101795.75;4972016;28;20035;-67
2023/06/13 07:41:55;;;;;;;5.88;3.75;;;;;;;26.00;32.64;101787.13;4990601;28;20038;-67
2023/06/13 07:44:21;;;;;;;8.43;4.25;;;;;;;26.05;32.57;101790.06;4984810;28;20053;-67
2023/06/13 07:46:47;;;;;;;5.10;3.50;;;;;;;26.07;32.56;101789.84;4986776;28;20030;-67
2023/06/13 07:49:13;;;;;;;7.85;4.07;;;;;;;26.08;32.51;101792.31;4970414;28;20041;-67
2023/06/13 07:51:39;;;;;;;6.32;3.58;;;;;;;26.09;32.68;101799.31;4990359;28;20031;-67
2023/06/13 07:54:05;;;;;;;6.85;3.83;;;;;;;26.12;31.80;101798.91;4993225;28;21347;-66
2023/06/13 07:56:31;;;;;;;6.63;3.67;;;;;;;26.13;31.91;101797.06;4951694;28;20034;-67
2023/06/13 07:58:57;;;;;;;5.20;3.45;;;;;;;26.15;31.72;101800.34;4983440;28;20034;-67
2023/06/13 08:01:22;;;;;;;7.60;4.03;;;;;;;26.17;32.13;101801.78;4973663;28;20381;-67
2023/06/13 08:03:48;;;;;;;7.53;3.78;;;;;;;26.17;31.43;101807.13;4980215;28;20042;-67
2023/06/13 08:06:13;;;;;;;5.65;3.63;;;;;;;26.17;31.41;101798.31;4983314;28;20114;-66
2023/06/13 08:08:39;;;;;;;8.25;3.70;;;;;;;26.13;31.59;101784.53;4983777;28;20089;-66
2023/06/13 08:11:05;;;;;;;6.25;3.65;;;;;;;26.22;31.37;101800.41;4985632;28;20047;-67
2023/06/13 08:13:30;;;;;;;7.53;3.90;;;;;;;26.22;31.42;101798.56;4955694;28;20038;-72
2023/06/13 08:15:56;;;;;;;6.60;3.60;;;;;;;26.24;31.30;101793.84;4979741;28;20035;-72
2023/06/13 08:18:22;;;;;;;6.38;3.58;;;;;;;26.24;31.60;101791.16;4953274;28;20046;-72
2023/06/13 08:20:48;;;;;;;7.10;3.70;;;;;;;26.25;31.90;101792.81;4959332;28;20086;-72
2023/06/13 08:23:14;;;;;;;5.72;3.28;;;;;;;26.28;31.61;101799.59;4970722;28;20035;-71
2023/06/13 08:25:41;;;;;;;5.93;3.45;;;;;;;26.25;30.78;101786.66;4969929;28;20066;-71
2023/06/13 08:28:07;;;;;;;9.32;3.90;;;;;;;26.27;31.37;101796.09;4968885;28;20042;-71
2023/06/13 08:30:33;;;;;;;5.00;3.65;;;;;;;26.32;32.06;101792.81;4974711;28;20045;-71
2023/06/13 08:33:02;;;;;;;5.00;3.33;;;;;;;26.31;32.27;101784.00;4974963;28;20050;-71
2023/06/13 08:35:28;;;;;;;7.30;3.80;;;;;;;26.34;32.61;101791.59;4919097;28;20056;-72
2023/06/13 08:37:54;;;;;;;6.10;3.90;;;;;;;26.33;31.95;101781.94;4956706;28;20039;-71
2023/06/13 08:40:20;;;;;;;9.43;3.88;;;;;;;26.38;32.18;101782.19;4968984;28;20118;-71
2023/06/13 08:42:46;;;;;;;6.20;3.50;;;;;;;26.39;32.78;101786.53;4971230;28;20049;-70
2023/06/13 08:45:12;;;;;;;4.75;3.53;;;;;;;26.42;32.88;101782.63;4970485;28;20406;-70
2023/06/13 08:47:39;;;;;;;5.78;3.67;;;;;;;26.43;32.99;101782.44;4955565;28;20055;-71
2023/06/13 08:50:08;;;;;;;4.60;3.47;;;;;;;26.41;32.79;101778.31;4971658;28;20299;-70
2023/06/13 08:52:39;;;;;;;7.03;3.65;;;;;;;26.44;33.24;101778.72;4943970;28;21266;-71
2023/06/13 08:55:12;;;;;;;7.65;3.95;;;;;;;26.46;33.02;101770.50;4936474;28;20034;-70
2023/06/13 08:57:39;;;;;;;6.00;3.72;;;;;;;26.47;33.31;101766.81;4975500;28;20489;-70
2023/06/13 09:00:09;;;;;;;5.45;3.40;;;;;;;26.47;33.21;101772.97;4969284;28;20120;-70
2023/06/13 09:02:35;;;;;;;;;;;;;;;26.48;32.79;101766.63;4965313;28;20101;-70
2023/06/13 09:05:03;;;;;;;5.00;3.65;;;;;;;26.49;33.45;101768.25;4965383;28;19917;-70
2023/06/13 09:07:30;;;;;;;5.45;3.63;;;;;;;26.50;33.55;101763.75;4970651;28;20057;-70
2023/06/13 09:09:57;;;;;;;5.93;3.80;;;;;;;26.50;33.38;101761.06;4972036;28;20051;-70
2023/06/13 09:12:22;;;;;;;6.15;4.38;;;;;;;26.52;33.50;101758.19;4958966;28;20145;-66
2023/06/13 09:14:48;;;;;;;4.60;3.50;;;;;;;26.51;33.51;101762.72;4941728;28;20409;-71
2023/06/13 09:17:14;;;;;;;5.97;3.95;;;;;;;26.50;33.57;101756.56;4968699;28;20041;-71
2023/06/13 09:19:40;;;;;;;6.63;4.05;;;;;;;26.49;33.65;101754.09;4955920;28;20581;-70
2023/06/13 09:22:05;;;;;;;6.72;3.78;;;;;;;26.50;33.77;101748.53;4971570;28;20035;-70
2023/06/13 09:24:32;;;;;;;6.15;3.83;;;;;;;26.53;33.73;101751.81;4964703;28;21457;-70
2023/06/13 09:27:01;;;;;;;5.70;3.60;;;;;;;26.53;33.62;101741.97;4965632;28;20043;-70
2023/06/13 09:29:36;;;;;;;5.95;3.50;;;;;;;26.53;33.73;101755.31;4962672;28;20035;-69
2023/06/13 09:32:03;;;;;;;6.00;3.70;;;;;;;26.53;34.07;101749.97;4954578;28;20854;-65
2023/06/13 09:34:29;;;;;;;7.40;4.15;;;;;;;26.54;34.37;101750.78;4968802;28;20111;-66
2023/06/13 09:36:56;;;;;;;6.00;3.70;;;;;;;26.52;33.90;101736.81;4945301;28;20031;-70
2023/06/13 09:39:23;;;;;;;5.47;3.58;;;;;;;26.53;34.32;101752.66;4965609;28;20144;-69
2023/06/13 09:42:00;;;;;;;7.78;3.80;;;;;;;26.54;34.19;101734.78;4968949;28;20062;-70
2023/06/13 09:44:26;;;;;;;7.13;3.92;;;;;;;26.55;34.05;101742.56;4966420;28;20046;-70
2023/06/13 09:46:53;;;;;;;5.80;3.80;;;;;;;26.54;34.29;101740.94;4965588;28;20053;-70
2023/06/13 09:49:19;;;;;;;8.98;4.22;;;;;;;26.55;34.30;101736.41;4967733;28;20058;-70
2023/06/13 09:51:45;;;;;;;5.20;4.05;;;;;;;26.54;34.37;101746.28;4955191;28;20035;-64
2023/06/13 09:54:12;;;;;;;7.05;3.70;;;;;;;26.56;34.46;101738.06;4964030;28;20031;-65
2023/06/13 09:56:42;;;;;;;4.95;3.40;;;;;;;26.54;34.93;101726.75;4953362;28;20042;-69
2023/06/13 09:59:15;;;;;;;6.90;4.00;;;;;;;26.56;34.72;101735.38;4967259;28;20126;-69
2023/06/13 10:01:41;;;;;;;5.68;3.80;;;;;;;26.57;35.04;101727.19;4964819;28;20452;-72
2023/06/13 10:04:06;;;;;;;6.65;4.20;;;;;;;26.55;34.75;101723.88;4968947;28;20066;-70
2023/06/13 10:06:32;;;;;;;8.07;4.40;;;;;;;26.58;34.70;101733.38;4965686;28;20043;-70
2023/06/13 10:08:58;;;;;;;6.32;3.70;;;;;;;26.59;35.10;101737.69;4968335;28;20045;-70
2023/06/13 10:11:29;;;;;;;5.82;4.03;;;;;;;26.58;34.79;101720.00;4964901;28;20075;-69
2023/06/13 10:14:16;;;;;;;5.57;3.90;;;;;;;26.58;35.00;101718.16;4940682;28;20069;-70
2023/06/13 10:16:45;;;;;;;6.47;3.65;;;;;;;26.53;35.07;101709.91;4967647;28;20058;-70
2023/06/13 10:19:19;;;;;;;4.65;3.30;;;;;;;26.58;35.11;101720.84;4957706;28;20058;-70
2023/06/13 10:21:46;;;;;;;5.35;4.00;;;;;;;26.59;34.89;101710.97;4970608;28;20435;-70
2023/06/13 10:24:13;;;;;;;5.70;3.92;;;;;;;26.59;35.11;101709.13;4965049;28;20042;-70
2023/06/13 10:26:44;;;;;;;6.13;3.75;;;;;;;26.58;35.20;101718.16;4973857;28;20061;-71
2023/06/13 10:29:42;;;;;;;9.30;4.18;;;;;;;26.55;34.88;101709.69;4971027;28;20033;-70
2023/06/13 10:32:29;;;;;;;5.63;3.50;;;;;;;26.55;34.98;101710.53;4971121;28;20094;-70
2023/06/13 10:35:04;;;;;;;5.90;4.07;;;;;;;26.56;35.37;101706.00;4957237;28;20078;-65
2023/06/13 10:37:53;;;;;;;5.55;4.03;;;;;;;26.55;35.06;101702.50;4968552;28;20062;-66
2023/06/13 10:40:28;;;;;;;8.63;4.28;;;;;;;26.57;35.53;101713.00;4952415;28;20030;-65
2023/06/13 10:43:15;;;;;;;8.20;3.83;;;;;;;26.54;35.64;101700.88;4969334;28;20669;-65
2023/06/13 10:45:44;;;;;;;5.72;4.13;;;;;;;26.56;35.26;101700.66;4969741;28;20066;-66
2023/06/13 10:48:11;;;;;;;5.68;4.25;;;;;;;26.56;35.15;101703.34;4967691;28;20030;-65
2023/06/13 10:50:40;;;;;;;5.72;3.80;;;;;;;26.57;35.67;101705.84;4967509;28;20046;-66
2023/06/13 10:53:09;;;;;;;;;;;;;;;26.56;35.08;101700.66;4970975;28;20081;-65
2023/06/13 10:55:38;;;;;;;6.30;4.50;;;;;;;26.52;35.43;101694.09;4943691;28;19934;-69
2023/06/13 10:58:11;;;;;;;5.78;4.03;;;;;;;26.57;35.30;101697.81;4963985;28;20039;-70
2023/06/13 11:00:39;;;;;;;6.90;4.10;;;;;;;26.58;35.44;101695.97;4973249;28;20140;-69
2023/06/13 11:03:07;;;;;;;4.38;3.85;;;;;;;26.58;35.67;101706.66;4954286;28;20042;-69
2023/06/13 11:05:35;;;;;;;7.25;4.07;;;;;;;26.56;35.66;101695.31;4967664;28;20211;-70
2023/06/13 11:08:04;;;;;;;6.15;3.75;;;;;;;26.56;35.79;101708.69;4966559;28;20395;-71
2023/06/13 11:10:34;;;;;;;6.07;3.60;;;;;;;26.55;35.62;101691.81;4967759;28;20066;-70
2023/06/13 11:13:03;;;;;;;5.03;3.60;;;;;;;26.58;35.41;101690.63;4979447;28;20101;-70
2023/06/13 11:15:29;;;;;;;4.88;3.67;;;;;;;26.56;35.40;101684.63;4987691;28;20042;-71
2023/06/13 11:18:07;;;;;;;6.50;3.80;;;;;;;26.57;35.51;101684.47;4976136;28;20038;-70
2023/06/13 11:20:33;;;;;;;8.43;4.13;;;;;;;26.58;35.48;101698.63;4987404;28;20037;-70
2023/06/13 11:22:58;;;;;;;4.93;3.83;;;;;;;26.58;35.38;101688.78;4984399;28;20640;-71
2023/06/13 11:25:24;;;;;;;7.47;3.50;;;;;;;26.53;35.54;101685.03;4986147;28;20061;-71
2023/06/13 11:27:55;;;;;;;11.48;4.25;;;;;;;26.37;34.91;101681.72;4983744;28;20034;-69